Time;durP1;ratioP1;P1;durP2;ratioP2;P2;SDS_P1;SDS_P2;PMS_P1;PMS_P2;Temp;Humidity;BMP_temperature;BMP_pressure;BME280_temperature;BME280_humidity;BME280_pressure;Samples;Min_cycle;Max_cycle;Signal;HPM_P1;HPM_P2
2023/06/30 00:00:25;;;;;;;0.10;0.10;;;17.10;99.90;;;;;;5106412;28;20643;-83
2023/06/30 00:02:51;;;;;;;0.10;0.10;;;17.00;99.90;;;;;;5100615;28;20204;-77
2023/06/30 00:05:16;;;;;;;0.10;0.10;;;17.00;99.90;;;;;;5105670;28;20470;-77
2023/06/30 00:07:45;;;;;;;0.10;0.10;;;17.00;99.90;;;;;;5094848;27;20195;-77
2023/06/30 00:10:11;;;;;;;0.10;0.10;;;17.00;99.90;;;;;;5112157;27;20212;-77
2023/06/30 00:12:36;;;;;;;0.10;0.10;;;17.00;99.90;;;;;;5090362;28;21058;-77
2023/06/30 00:15:02;;;;;;;0.10;0.10;;;16.90;99.90;;;;;;5108742;28;20191;-77
2023/06/30 00:17:28;;;;;;;0.10;0.10;;;16.70;99.90;;;;;;5098734;27;20272;-77
2023/06/30 00:19:57;;;;;;;0.10;0.10;;;16.80;99.90;;;;;;5097748;27;20509;-78
2023/06/30 00:22:23;;;;;;;0.10;0.10;;;16.80;99.90;;;;;;5124408;27;20183;-78
2023/06/30 00:24:55;;;;;;;0.10;0.10;;;16.80;99.90;;;;;;5113179;27;20445;-78
2023/06/30 00:27:22;;;;;;;0.10;0.10;;;16.70;99.90;;;;;;5091441;28;20542;-77
2023/06/30 00:29:47;;;;;;;0.10;0.10;;;16.60;99.90;;;;;;5091096;28;20446;-77
2023/06/30 00:32:13;;;;;;;0.10;0.10;;;16.70;99.90;;;;;;5099864;28;20446;-77
2023/06/30 00:34:38;;;;;;;0.10;0.10;;;16.60;99.90;;;;;;5126495;27;20592;-77
2023/06/30 00:37:04;;;;;;;0.10;0.10;;;16.60;99.90;;;;;;5116352;27;20272;-80
2023/06/30 00:39:29;;;;;;;0.10;0.10;;;16.60;99.90;;;;;;5109388;27;20184;-78
2023/06/30 00:41:55;;;;;;;0.10;0.10;;;16.50;99.90;;;;;;5111338;28;20584;-78
2023/06/30 00:44:20;;;;;;;0.10;0.10;;;16.60;99.90;;;;;;5108622;28;20565;-78
2023/06/30 00:46:46;;;;;;;0.10;0.10;;;16.50;99.90;;;;;;5097361;28;20680;-78
2023/06/30 00:49:11;;;;;;;0.10;0.10;;;16.50;99.90;;;;;;5111406;28;20183;-78
2023/06/30 00:51:37;;;;;;;0.10;0.10;;;16.50;99.90;;;;;;5092303;28;20691;-79
2023/06/30 00:54:02;;;;;;;0.10;0.10;;;16.50;99.90;;;;;;5111048;27;20197;-78
2023/06/30 00:56:28;;;;;;;0.10;0.10;;;16.50;99.90;;;;;;5109350;28;20550;-79
2023/06/30 00:58:54;;;;;;;0.10;0.10;;;16.50;99.90;;;;;;5108747;28;20184;-78
2023/06/30 01:01:31;;;;;;;0.10;0.10;;;16.60;99.90;;;;;;5086069;28;20239;-78
2023/06/30 01:04:07;;;;;;;0.10;0.10;;;16.60;99.90;;;;;;5090826;28;20237;-78
2023/06/30 01:06:40;;;;;;;0.10;0.10;;;16.50;99.90;;;;;;5111610;28;20605;-79
2023/06/30 01:09:13;;;;;;;0.10;0.10;;;16.50;99.90;;;;;;5106812;28;20438;-79
2023/06/30 01:11:39;;;;;;;0.10;0.10;;;16.40;99.90;;;;;;5108554;28;20793;-79
2023/06/30 01:14:06;;;;;;;0.10;0.10;;;16.40;99.90;;;;;;5120774;27;21066;-79
2023/06/30 01:16:34;;;;;;;0.10;0.10;;;16.40;99.90;;;;;;5114938;28;20545;-78
2023/06/30 01:19:01;;;;;;;0.10;0.10;;;16.40;99.90;;;;;;5114444;28;20917;-79
2023/06/30 01:21:29;;;;;;;0.10;0.10;;;16.40;99.90;;;;;;5110690;28;20804;-79
2023/06/30 01:24:05;;;;;;;0.10;0.10;;;16.20;99.90;;;;;;5085779;28;20434;-78
2023/06/30 01:26:34;;;;;;;0.10;0.10;;;16.20;99.90;;;;;;5110815;28;20480;-79
2023/06/30 01:29:01;;;;;;;0.10;0.10;;;16.30;99.90;;;;;;5097180;28;20450;-78
2023/06/30 01:31:31;;;;;;;0.10;0.10;;;16.30;99.90;;;;;;5093224;28;20532;-78
2023/06/30 01:34:00;;;;;;;0.10;0.10;;;16.30;99.90;;;;;;5113881;28;20459;-78
2023/06/30 01:36:26;;;;;;;0.10;0.10;;;16.30;99.90;;;;;;5111585;27;20492;-79
2023/06/30 01:38:52;;;;;;;0.10;0.10;;;16.20;99.90;;;;;;5111855;28;21250;-78
2023/06/30 01:41:20;;;;;;;0.10;0.10;;;16.20;99.90;;;;;;5123614;27;20202;-78
2023/06/30 01:43:45;;;;;;;0.10;0.10;;;16.20;99.90;;;;;;5111425;28;20242;-79
2023/06/30 01:46:11;;;;;;;0.10;0.10;;;16.20;99.90;;;;;;5093132;28;20576;-78
2023/06/30 01:48:38;;;;;;;0.10;0.10;;;16.10;99.90;;;;;;5103156;28;21042;-77
2023/06/30 01:51:04;;;;;;;0.10;0.10;;;16.00;99.90;;;;;;5112345;27;20604;-78
2023/06/30 01:53:30;;;;;;;0.10;0.10;;;16.10;99.90;;;;;;5111383;28;20527;-78
2023/06/30 01:55:56;;;;;;;0.10;0.10;;;16.10;99.90;;;;;;5116597;27;20491;-78
2023/06/30 01:58:21;;;;;;;0.10;0.10;;;16.20;99.90;;;;;;5111025;27;20753;-78
2023/06/30 02:00:47;;;;;;;0.10;0.10;;;16.20;99.90;;;;;;5107626;28;20247;-80
2023/06/30 02:03:12;;;;;;;0.10;0.10;;;16.20;99.90;;;;;;5111455;28;20184;-79
2023/06/30 02:05:38;;;;;;;0.10;0.10;;;16.20;99.90;;;;;;5095009;28;20212;-77
2023/06/30 02:08:04;;;;;;;0.10;0.10;;;16.10;99.90;;;;;;5113185;28;20224;-78
2023/06/30 02:10:31;;;;;;;0.10;0.10;;;16.10;99.90;;;;;;5114083;28;20245;-78
2023/06/30 02:12:56;;;;;;;0.10;0.10;;;16.20;99.90;;;;;;5111766;28;20180;-79
2023/06/30 02:15:22;;;;;;;0.10;0.10;;;16.20;99.90;;;;;;5108813;28;21332;-79
2023/06/30 02:17:48;;;;;;;0.10;0.10;;;16.10;99.90;;;;;;5099456;27;20217;-78
2023/06/30 02:20:13;;;;;;;0.10;0.10;;;16.20;99.90;;;;;;5092516;28;20215;-79
2023/06/30 02:22:39;;;;;;;0.10;0.10;;;16.20;99.90;;;;;;5091876;28;20226;-79
2023/06/30 02:25:05;;;;;;;0.10;0.10;;;16.10;99.90;;;;;;5093909;28;20180;-79
2023/06/30 02:27:30;;;;;;;0.10;0.10;;;16.10;99.90;;;;;;5111202;28;20184;-79
2023/06/30 02:29:56;;;;;;;0.10;0.10;;;16.10;99.90;;;;;;5112349;28;20991;-78
2023/06/30 02:32:22;;;;;;;0.10;0.10;;;16.10;99.90;;;;;;5094214;28;20728;-79
2023/06/30 02:34:47;;;;;;;0.10;0.10;;;16.10;99.90;;;;;;5112354;28;20437;-78
2023/06/30 02:37:13;;;;;;;0.10;0.10;;;16.10;99.90;;;;;;5109434;28;20267;-79
2023/06/30 02:39:39;;;;;;;0.10;0.10;;;16.10;99.90;;;;;;5109442;28;20652;-78
2023/06/30 02:42:05;;;;;;;0.10;0.10;;;16.00;99.90;;;;;;5104051;28;20438;-78
2023/06/30 02:44:30;;;;;;;0.10;0.10;;;16.00;99.90;;;;;;5113334;28;20640;-78
2023/06/30 02:46:56;;;;;;;0.10;0.10;;;16.00;99.90;;;;;;5100850;27;20217;-78
2023/06/30 02:49:22;;;;;;;0.10;0.10;;;16.00;99.90;;;;;;5104808;28;20188;-79
2023/06/30 02:51:48;;;;;;;0.10;0.10;;;16.00;99.90;;;;;;5105147;28;20272;-78
2023/06/30 02:54:13;;;;;;;0.10;0.10;;;16.00;99.90;;;;;;5091996;28;20438;-78
2023/06/30 02:56:39;;;;;;;0.10;0.10;;;16.00;99.90;;;;;;5105161;27;20549;-78
2023/06/30 02:59:04;;;;;;;0.10;0.10;;;16.00;99.90;;;;;;5111425;27;20189;-79
2023/06/30 03:01:30;;;;;;;0.10;0.10;;;15.90;99.90;;;;;;5109783;28;20224;-79
2023/06/30 03:03:55;;;;;;;0.10;0.10;;;16.00;99.90;;;;;;5092492;28;20188;-78
2023/06/30 03:06:21;;;;;;;0.10;0.10;;;16.00;99.90;;;;;;5107340;28;20219;-78
2023/06/30 03:08:46;;;;;;;0.10;0.10;;;15.90;99.90;;;;;;5112769;28;21040;-78
2023/06/30 03:11:12;;;;;;;0.10;0.10;;;16.00;99.90;;;;;;5109426;28;20198;-78
2023/06/30 03:13:38;;;;;;;0.10;0.10;;;16.00;99.90;;;;;;5111209;27;20663;-79
2023/06/30 03:16:04;;;;;;;0.10;0.10;;;16.00;99.90;;;;;;5110124;28;20181;-78
2023/06/30 03:18:30;;;;;;;0.10;0.10;;;15.90;99.90;;;;;;5109454;28;20195;-78
2023/06/30 03:20:55;;;;;;;0.10;0.10;;;16.00;99.90;;;;;;5108695;27;20474;-78
2023/06/30 03:23:21;;;;;;;0.10;0.10;;;16.00;99.90;;;;;;5106018;28;20245;-79
2023/06/30 03:25:46;;;;;;;0.10;0.10;;;15.90;99.90;;;;;;5110379;28;20287;-78
2023/06/30 03:28:12;;;;;;;0.10;0.10;;;16.00;99.90;;;;;;5110445;28;20195;-78
2023/06/30 03:30:37;;;;;;;0.10;0.10;;;15.90;99.90;;;;;;5109627;28;20202;-78
2023/06/30 03:33:03;;;;;;;0.10;0.10;;;15.90;99.90;;;;;;5091835;28;20189;-79
2023/06/30 03:35:29;;;;;;;0.10;0.10;;;15.90;99.90;;;;;;5110604;28;20188;-78
2023/06/30 03:37:55;;;;;;;0.10;0.10;;;15.90;99.90;;;;;;5102574;28;20176;-78
2023/06/30 03:40:20;;;;;;;0.10;0.10;;;15.90;99.90;;;;;;5109577;28;20926;-78
2023/06/30 03:42:46;;;;;;;0.10;0.10;;;15.90;99.90;;;;;;5105629;28;20256;-79
2023/06/30 03:45:11;;;;;;;0.10;0.10;;;15.90;99.90;;;;;;5105797;28;20208;-78
2023/06/30 03:47:37;;;;;;;0.10;0.10;;;16.00;99.90;;;;;;5111119;28;20203;-78
2023/06/30 03:50:03;;;;;;;0.10;0.10;;;16.00;99.90;;;;;;5110844;28;20639;-78
2023/06/30 03:52:28;;;;;;;0.10;0.10;;;15.90;99.90;;;;;;5103807;28;20450;-78
2023/06/30 03:54:54;;;;;;;0.10;0.10;;;15.90;99.90;;;;;;5111740;28;20184;-78
2023/06/30 03:57:19;;;;;;;0.10;0.10;;;15.90;99.90;;;;;;5109329;28;20192;-78
2023/06/30 03:59:46;;;;;;;0.10;0.10;;;15.80;99.90;;;;;;5109897;28;20181;-78
2023/06/30 04:02:11;;;;;;;0.10;0.10;;;15.80;99.90;;;;;;5092688;28;20193;-78
2023/06/30 04:04:37;;;;;;;0.10;0.10;;;15.80;99.90;;;;;;5108180;28;21036;-78
2023/06/30 04:07:02;;;;;;;0.10;0.10;;;15.80;99.90;;;;;;5090190;28;20640;-78
2023/06/30 04:09:28;;;;;;;0.10;0.10;;;15.80;99.90;;;;;;5106189;28;20268;-78
2023/06/30 04:11:53;;;;;;;0.10;0.10;;;15.70;99.90;;;;;;5109450;28;20278;-78
2023/06/30 04:14:19;;;;;;;0.10;0.10;;;15.80;99.90;;;;;;5108648;28;20261;-78
2023/06/30 04:16:44;;;;;;;0.10;0.10;;;15.80;99.90;;;;;;5088799;28;20188;-78
2023/06/30 04:19:10;;;;;;;0.10;0.10;;;15.80;99.90;;;;;;5086888;28;20188;-78
2023/06/30 04:21:35;;;;;;;0.10;0.10;;;15.80;99.90;;;;;;5112570;27;20227;-78
2023/06/30 04:24:01;;;;;;;0.10;0.10;;;15.80;99.90;;;;;;5106677;28;20188;-78
2023/06/30 04:26:28;;;;;;;0.10;0.10;;;15.70;99.90;;;;;;5107343;28;20223;-78
2023/06/30 04:28:53;;;;;;;0.10;0.10;;;15.80;99.90;;;;;;5109582;28;20241;-78
2023/06/30 04:31:19;;;;;;;0.10;0.10;;;15.80;99.90;;;;;;5088343;28;20457;-78
2023/06/30 04:33:44;;;;;;;0.10;0.10;;;15.90;99.90;;;;;;5100427;27;20183;-78
2023/06/30 04:36:10;;;;;;;0.10;0.10;;;15.90;99.90;;;;;;5106006;27;20636;-78
2023/06/30 04:38:36;;;;;;;0.10;0.10;;;15.90;99.90;;;;;;5122668;27;20199;-78
2023/06/30 04:41:01;;;;;;;0.10;0.10;;;16.00;99.90;;;;;;5110818;27;20200;-79
2023/06/30 04:43:27;;;;;;;0.10;0.10;;;16.00;99.90;;;;;;5099044;27;20237;-79
2023/06/30 04:45:52;;;;;;;0.10;0.10;;;16.00;99.90;;;;;;5098922;27;20210;-79
2023/06/30 04:48:18;;;;;;;0.10;0.10;;;16.00;99.90;;;;;;5099314;28;20665;-78
2023/06/30 04:50:43;;;;;;;0.10;0.10;;;15.90;99.90;;;;;;5106302;27;20187;-79
2023/06/30 04:53:09;;;;;;;0.10;0.10;;;15.80;99.90;;;;;;5109688;27;20537;-79
2023/06/30 04:55:34;;;;;;;0.10;0.10;;;15.80;99.90;;;;;;5108139;27;20568;-79
2023/06/30 04:58:00;;;;;;;0.10;0.10;;;15.80;99.90;;;;;;5110034;28;20183;-79
2023/06/30 05:00:26;;;;;;;0.10;0.10;;;15.80;99.90;;;;;;5111591;27;20707;-79
2023/06/30 05:02:52;;;;;;;0.10;0.10;;;15.80;99.90;;;;;;5106601;28;21036;-79
2023/06/30 05:05:18;;;;;;;0.10;0.10;;;15.80;99.90;;;;;;5106960;28;20438;-78
2023/06/30 05:07:43;;;;;;;0.10;0.10;;;15.90;99.90;;;;;;5104220;28;20190;-79
2023/06/30 05:10:09;;;;;;;0.10;0.10;;;15.70;99.90;;;;;;5110666;28;20265;-79
2023/06/30 05:12:36;;;;;;;0.10;0.10;;;15.90;99.90;;;;;;5094320;28;20748;-78
2023/06/30 05:15:01;;;;;;;0.10;0.10;;;15.90;99.90;;;;;;5111428;28;20424;-78
2023/06/30 05:17:27;;;;;;;0.10;0.10;;;16.00;99.90;;;;;;5106170;28;20438;-78
2023/06/30 05:19:53;;;;;;;0.10;0.10;;;16.00;99.90;;;;;;5107580;28;20275;-79
2023/06/30 05:22:18;;;;;;;0.10;0.10;;;16.10;99.90;;;;;;5105097;28;20192;-79
2023/06/30 05:24:43;;;;;;;0.10;0.10;;;16.30;99.90;;;;;;5109818;28;20185;-78
2023/06/30 05:27:09;;;;;;;0.10;0.10;;;16.40;99.90;;;;;;5090526;28;20208;-79
2023/06/30 05:29:35;;;;;;;0.10;0.10;;;16.50;99.90;;;;;;5110320;28;20711;-79
2023/06/30 05:32:01;;;;;;;0.10;0.10;;;16.70;99.90;;;;;;5106428;28;20185;-79
2023/06/30 05:34:28;;;;;;;0.10;0.10;;;16.80;99.90;;;;;;5099380;28;20687;-79
2023/06/30 05:36:55;;;;;;;0.10;0.00;;;17.00;99.90;;;;;;5106170;28;20442;-79
2023/06/30 05:39:21;;;;;;;0.10;0.10;;;16.90;99.90;;;;;;5100513;28;20503;-79
2023/06/30 05:41:47;;;;;;;0.10;0.10;;;16.80;99.90;;;;;;5090504;28;20490;-79
2023/06/30 05:44:12;;;;;;;0.10;0.10;;;16.80;99.90;;;;;;5105633;28;20470;-80
2023/06/30 05:46:38;;;;;;;0.10;0.10;;;16.90;99.90;;;;;;5089124;28;20699;-79
2023/06/30 05:49:05;;;;;;;0.10;0.10;;;16.90;99.90;;;;;;5107665;28;20543;-79
2023/06/30 05:51:35;;;;;;;0.10;0.10;;;16.70;99.90;;;;;;5108784;28;20175;-79
2023/06/30 05:54:02;;;;;;;0.10;0.10;;;16.70;99.90;;;;;;5086486;28;20440;-79
2023/06/30 05:56:28;;;;;;;0.10;0.10;;;16.60;99.90;;;;;;5121943;28;20524;-80
2023/06/30 05:58:53;;;;;;;0.10;0.10;;;16.70;99.90;;;;;;5092585;28;20442;-79
2023/06/30 06:01:20;;;;;;;0.10;0.10;;;16.60;99.90;;;;;;5075991;28;20563;-79
2023/06/30 06:03:46;;;;;;;0.10;0.10;;;16.50;99.90;;;;;;5069582;28;20182;-79
2023/06/30 06:06:11;;;;;;;0.10;0.10;;;16.60;99.90;;;;;;5070411;28;20549;-80
2023/06/30 06:08:43;;;;;;;0.10;0.10;;;16.30;99.90;;;;;;5070552;28;20205;-79
2023/06/30 06:11:08;;;;;;;0.10;0.10;;;16.40;99.90;;;;;;5072735;28;20727;-80
2023/06/30 06:13:36;;;;;;;0.10;0.10;;;16.20;99.90;;;;;;5072628;28;20430;-79
2023/06/30 06:16:03;;;;;;;0.10;0.10;;;16.20;99.90;;;;;;5071669;28;20196;-79
2023/06/30 06:18:29;;;;;;;0.10;0.10;;;16.40;99.90;;;;;;5075613;28;20479;-79
2023/06/30 06:20:55;;;;;;;0.10;0.10;;;16.30;99.90;;;;;;5070403;28;20480;-79
2023/06/30 06:23:21;;;;;;;0.10;0.10;;;16.30;99.90;;;;;;5067383;28;20186;-79
2023/06/30 06:25:47;;;;;;;0.10;0.10;;;16.30;99.90;;;;;;5063027;28;20558;-79
2023/06/30 06:28:13;;;;;;;0.10;0.10;;;16.30;99.90;;;;;;5068512;28;20212;-79
2023/06/30 06:30:38;;;;;;;0.10;0.10;;;16.30;99.90;;;;;;5070233;28;21311;-79
2023/06/30 06:33:04;;;;;;;0.10;0.10;;;16.30;99.90;;;;;;5068374;28;20672;-78
2023/06/30 06:35:29;;;;;;;0.10;0.10;;;16.30;99.90;;;;;;5069806;28;20189;-78
2023/06/30 06:37:55;;;;;;;0.10;0.10;;;16.40;99.90;;;;;;5067773;28;20186;-77
2023/06/30 06:40:20;;;;;;;0.10;0.10;;;16.50;99.90;;;;;;5070342;28;20189;-79
2023/06/30 06:42:46;;;;;;;0.10;0.10;;;16.50;99.90;;;;;;5071829;28;20207;-79
2023/06/30 06:45:12;;;;;;;0.10;0.10;;;16.60;99.90;;;;;;5068837;28;20264;-79
2023/06/30 06:48:15;;;;;;;0.10;0.10;;;16.50;99.90;;;;;;5070510;28;20482;-79
2023/06/30 06:50:41;;;;;;;0.10;0.10;;;16.40;99.90;;;;;;5067460;28;20183;-79
2023/06/30 06:53:07;;;;;;;0.10;0.10;;;16.60;99.90;;;;;;5068179;28;20955;-79
2023/06/30 06:55:32;;;;;;;0.00;0.00;;;16.70;99.90;;;;;;5076387;28;20182;-80
2023/06/30 06:57:58;;;;;;;0.00;0.00;;;16.60;99.90;;;;;;5068643;28;20215;-79
2023/06/30 07:00:23;;;;;;;0.00;0.00;;;16.70;99.90;;;;;;5068070;28;20308;-79
2023/06/30 07:02:49;;;;;;;0.00;0.00;;;16.50;99.90;;;;;;5102378;27;20191;-80
2023/06/30 07:05:15;;;;;;;0.00;0.00;;;16.60;99.90;;;;;;5109993;27;20635;-79
2023/06/30 07:07:40;;;;;;;0.00;0.00;;;16.80;99.90;;;;;;5108556;28;20194;-78
2023/06/30 07:10:06;;;;;;;0.10;0.10;;;16.70;99.90;;;;;;5111710;28;20241;-79
2023/06/30 07:12:32;;;;;;;0.10;0.10;;;16.80;99.90;;;;;;5110173;28;20183;-78
2023/06/30 07:14:57;;;;;;;0.00;0.00;;;17.00;99.90;;;;;;5097432;28;20443;-79
2023/06/30 07:17:22;;;;;;;0.10;0.10;;;17.10;99.90;;;;;;5107503;28;20200;-79
2023/06/30 07:19:48;;;;;;;0.10;0.10;;;17.30;99.90;;;;;;5092466;28;20200;-79
2023/06/30 07:22:14;;;;;;;0.10;0.10;;;17.40;99.90;;;;;;5092461;28;20703;-79
2023/06/30 07:24:40;;;;;;;0.10;0.10;;;17.60;99.90;;;;;;5104203;28;20208;-79
2023/06/30 07:27:05;;;;;;;0.10;0.10;;;17.70;99.90;;;;;;5091168;28;20509;-79
2023/06/30 07:29:31;;;;;;;0.10;0.10;;;17.70;99.90;;;;;;5112233;28;20176;-78
2023/06/30 07:31:56;;;;;;;0.10;0.10;;;17.60;99.90;;;;;;5108377;27;20193;-78
2023/06/30 07:34:23;;;;;;;0.10;0.10;;;17.70;99.90;;;;;;5104816;27;20192;-78
2023/06/30 07:36:50;;;;;;;0.10;0.10;;;17.30;99.90;;;;;;5108540;27;20192;-77
2023/06/30 07:39:16;;;;;;;0.03;0.00;;;17.40;99.90;;;;;;5104417;28;20777;-79
2023/06/30 07:41:42;;;;;;;0.10;0.10;;;17.40;99.90;;;;;;5110711;28;20941;-78
2023/06/30 07:44:09;;;;;;;0.10;0.00;;;17.30;99.90;;;;;;5103056;28;20449;-78
2023/06/30 07:46:35;;;;;;;0.10;0.10;;;17.40;99.90;;;;;;5100838;28;20215;-79
2023/06/30 07:49:00;;;;;;;0.10;0.10;;;17.40;99.90;;;;;;5109172;28;20442;-78
2023/06/30 07:51:26;;;;;;;0.10;0.10;;;17.50;99.90;;;;;;5101983;28;20460;-78
2023/06/30 07:53:51;;;;;;;0.10;0.10;;;17.50;99.90;;;;;;5109835;28;20192;-78
2023/06/30 07:56:17;;;;;;;0.10;0.10;;;17.50;99.90;;;;;;5101867;28;20196;-78
2023/06/30 07:58:42;;;;;;;0.10;0.10;;;17.20;99.90;;;;;;5105276;27;20188;-78
2023/06/30 08:01:08;;;;;;;0.10;0.10;;;17.40;99.90;;;;;;5102825;28;20905;-78
2023/06/30 08:03:33;;;;;;;0.10;0.10;;;17.70;99.90;;;;;;5096026;28;20189;-78
2023/06/30 08:05:59;;;;;;;0.10;0.00;;;17.90;99.90;;;;;;5105772;28;20246;-78
2023/06/30 08:08:26;;;;;;;0.10;0.10;;;18.00;99.90;;;;;;5104767;28;20581;-78
2023/06/30 08:10:51;;;;;;;0.10;0.10;;;18.00;99.90;;;;;;5092448;28;20443;-78
2023/06/30 08:13:17;;;;;;;0.10;0.10;;;18.10;99.90;;;;;;5107119;28;20273;-78
2023/06/30 08:15:42;;;;;;;0.10;0.10;;;18.10;99.90;;;;;;5105002;28;20275;-78
2023/06/30 08:18:11;;;;;;;0.10;0.10;;;18.20;99.90;;;;;;5105515;28;20226;-78
2023/06/30 08:20:36;;;;;;;0.10;0.10;;;18.50;99.90;;;;;;5109126;28;20198;-78
2023/06/30 08:23:02;;;;;;;0.10;0.10;;;18.80;99.90;;;;;;5109409;27;20442;-78
2023/06/30 08:25:28;;;;;;;0.10;0.10;;;18.60;99.90;;;;;;5108578;27;20805;-78
2023/06/30 08:27:54;;;;;;;0.10;0.10;;;18.50;99.90;;;;;;5108753;28;20192;-79
2023/06/30 08:30:19;;;;;;;0.10;0.10;;;18.80;99.90;;;;;;5106654;28;20479;-78
2023/06/30 08:32:45;;;;;;;0.10;0.00;;;18.80;99.90;;;;;;5097150;28;20172;-78
2023/06/30 08:35:10;;;;;;;0.10;0.00;;;19.10;99.90;;;;;;5092009;28;20176;-79
2023/06/30 08:37:37;;;;;;;0.10;0.10;;;18.80;99.90;;;;;;5109074;27;20188;-78
2023/06/30 08:40:03;;;;;;;0.10;0.00;;;18.40;99.90;;;;;;5106831;28;20307;-79
2023/06/30 08:42:30;;;;;;;0.10;0.00;;;18.70;99.90;;;;;;5102929;27;21027;-79
2023/06/30 08:44:59;;;;;;;0.10;0.00;;;19.30;99.90;;;;;;5116098;27;20516;-81
2023/06/30 08:47:28;;;;;;;0.10;0.00;;;19.20;99.90;;;;;;5104564;27;20560;-79
2023/06/30 08:49:54;;;;;;;0.10;0.00;;;19.20;99.90;;;;;;5091787;28;20441;-80
2023/06/30 08:52:22;;;;;;;0.10;0.00;;;19.10;99.90;;;;;;5109729;28;20807;-78
2023/06/30 08:54:47;;;;;;;0.10;0.00;;;18.60;99.90;;;;;;5111264;28;20418;-80
2023/06/30 08:57:20;;;;;;;0.10;0.00;;;18.30;99.90;;;;;;5110647;28;20406;-80
2023/06/30 08:59:45;;;;;;;0.10;0.10;;;18.10;99.90;;;;;;5107432;28;20188;-79
2023/06/30 09:02:11;;;;;;;0.10;0.00;;;18.70;99.90;;;;;;5102454;28;20503;-80
2023/06/30 09:04:38;;;;;;;0.10;0.00;;;19.10;99.90;;;;;;5110937;28;20265;-80
2023/06/30 09:07:06;;;;;;;0.10;0.10;;;19.70;99.90;;;;;;5107733;28;20476;-80
2023/06/30 09:09:42;;;;;;;0.10;0.10;;;20.10;99.90;;;;;;5106920;28;20458;-80
2023/06/30 09:12:09;;;;;;;0.10;0.00;;;20.50;99.90;;;;;;5109451;28;20437;-80
2023/06/30 09:14:38;;;;;;;0.10;0.00;;;20.10;99.90;;;;;;5113147;28;20447;-80
2023/06/30 09:17:04;;;;;;;0.10;0.00;;;20.20;99.90;;;;;;5107270;28;20498;-79
2023/06/30 09:19:29;;;;;;;0.10;0.00;;;20.40;99.90;;;;;;5103391;28;20434;-80
2023/06/30 09:21:58;;;;;;;0.10;0.00;;;20.90;99.90;;;;;;5109572;28;20639;-80
2023/06/30 09:24:24;;;;;;;0.10;0.00;;;20.80;99.90;;;;;;5088808;28;20549;-80
2023/06/30 09:26:50;;;;;;;0.10;0.10;;;21.00;99.90;;;;;;5108296;28;20485;-80
2023/06/30 09:29:20;;;;;;;0.10;0.00;;;21.40;99.90;;;;;;5106775;28;20918;-80
2023/06/30 09:31:50;;;;;;;0.10;0.00;;;20.60;99.90;;;;;;5088681;28;20649;-80
2023/06/30 09:34:15;;;;;;;0.10;0.00;;;20.20;99.90;;;;;;5106437;28;20453;-80
2023/06/30 09:36:52;;;;;;;0.10;0.00;;;19.80;99.90;;;;;;5111967;28;20929;-80
2023/06/30 09:39:19;;;;;;;0.10;0.00;;;19.70;99.90;;;;;;5112655;28;20168;-80
2023/06/30 09:41:46;;;;;;;0.10;0.10;;;20.10;99.90;;;;;;5113267;28;20442;-80
2023/06/30 09:44:13;;;;;;;0.10;0.00;;;20.70;99.90;;;;;;5111516;28;20941;-80
2023/06/30 09:46:49;;;;;;;0.10;0.00;;;21.40;99.90;;;;;;5093900;28;20618;-80
2023/06/30 09:49:32;;;;;;;0.10;0.00;;;21.40;99.90;;;;;;5108257;28;20434;-80
2023/06/30 09:51:59;;;;;;;0.10;0.00;;;21.70;99.90;;;;;;5092644;28;21104;-80
2023/06/30 09:54:26;;;;;;;0.10;0.00;;;21.10;99.90;;;;;;5112377;28;20486;-81
2023/06/30 09:56:58;;;;;;;0.10;0.00;;;21.40;99.90;;;;;;5110882;28;20845;-80
2023/06/30 09:59:24;;;;;;;0.10;0.00;;;21.70;99.90;;;;;;5094837;28;20805;-83
2023/06/30 10:01:52;;;;;;;0.10;0.00;;;22.10;99.90;;;;;;5108466;28;20481;-84
2023/06/30 10:04:18;;;;;;;0.10;0.00;;;22.20;99.90;;;;;;5112884;28;20636;-81
2023/06/30 10:06:45;;;;;;;0.10;0.00;;;22.30;99.90;;;;;;5111449;28;20485;-81
2023/06/30 10:09:11;;;;;;;0.10;0.00;;;22.10;99.90;;;;;;5111307;28;20213;-81
2023/06/30 10:11:39;;;;;;;0.10;0.00;;;22.50;99.90;;;;;;5094197;28;20446;-81
2023/06/30 10:14:05;;;;;;;0.10;0.00;;;21.90;99.90;;;;;;5107697;28;20516;-82
2023/06/30 10:16:31;;;;;;;0.10;0.00;;;22.50;99.90;;;;;;5094462;28;20567;-81
2023/06/30 10:18:58;;;;;;;0.10;0.00;;;22.90;99.90;;;;;;5114831;27;20433;-81
2023/06/30 10:21:23;;;;;;;0.10;0.00;;;22.90;99.90;;;;;;5112120;27;20665;-81
2023/06/30 10:23:50;;;;;;;0.10;0.00;;;22.40;99.90;;;;;;5098993;28;20977;-83
2023/06/30 10:26:19;;;;;;;0.10;0.00;;;22.00;99.90;;;;;;5118389;27;20215;-84
2023/06/30 10:28:46;;;;;;;0.10;0.00;;;22.90;99.90;;;;;;5104900;27;20512;-81
2023/06/30 10:31:11;;;;;;;0.10;0.00;;;23.30;99.90;;;;;;5109350;28;20435;-80
2023/06/30 10:33:38;;;;;;;0.10;0.00;;;23.30;99.90;;;;;;5110756;28;20435;-82
2023/06/30 10:36:04;;;;;;;0.10;0.00;;;22.80;99.90;;;;;;5118728;27;20190;-83
2023/06/30 10:38:30;;;;;;;0.00;0.00;;;22.10;99.90;;;;;;5097796;28;20442;-85
2023/06/30 10:41:14;;;;;;;0.00;0.00;;;21.80;99.90;;;;;;5112256;28;20451;-88
2023/06/30 10:44:08;;;;;;;0.00;0.00;;;21.40;99.90;;;;;;5092271;28;20446;-83
2023/06/30 10:46:53;;;;;;;0.00;0.00;;;21.60;99.90;;;;;;5109103;28;20490;-85
2023/06/30 10:49:32;;;;;;;0.00;0.00;;;22.40;99.90;;;;;;5110887;28;20491;-87
2023/06/30 10:52:03;;;;;;;0.00;0.00;;;22.80;99.90;;;;;;5089098;27;20481;-85
2023/06/30 10:54:31;;;;;;;0.00;0.00;;;23.50;99.90;;;;;;5096475;28;20930;-87
2023/06/30 10:57:10;;;;;;;0.00;0.00;;;24.60;99.90;;;;;;5104927;27;20925;-86
2023/06/30 10:59:39;;;;;;;0.00;0.00;;;24.10;99.90;;;;;;5107172;27;20441;-84
2023/06/30 11:02:17;;;;;;;0.00;0.00;;;24.60;99.90;;;;;;5105183;27;20477;-86
2023/06/30 11:04:44;;;;;;;0.00;0.00;;;25.60;99.90;;;;;;5105265;27;20929;-87
2023/06/30 11:07:15;;;;;;;0.00;0.00;;;25.10;99.90;;;;;;5109958;28;20490;-89
2023/06/30 11:09:47;;;;;;;0.00;0.00;;;24.80;99.90;;;;;;5098029;27;20453;-84
2023/06/30 11:12:18;;;;;;;0.00;0.00;;;23.50;99.90;;;;;;5098701;28;20530;-85
2023/06/30 11:15:23;;;;;;;0.00;0.00;;;22.40;99.90;;;;;;5109775;28;20434;-84
2023/06/30 11:17:51;;;;;;;0.00;0.00;;;21.80;99.90;;;;;;5091827;28;20442;-85
2023/06/30 11:20:18;;;;;;;0.00;0.00;;;21.70;99.90;;;;;;5088632;27;20450;-83
2023/06/30 11:23:01;;;;;;;0.00;0.00;;;22.20;99.90;;;;;;5117121;27;20459;-85
2023/06/30 11:25:28;;;;;;;0.00;0.00;;;22.90;99.90;;;;;;5112731;27;20956;-85
2023/06/30 11:27:55;;;;;;;0.00;0.00;;;22.60;99.90;;;;;;5107036;28;20450;-83
2023/06/30 11:30:22;;;;;;;0.00;0.00;;;23.60;99.90;;;;;;5107043;28;20521;-86
2023/06/30 11:32:53;;;;;;;0.10;0.00;;;24.40;99.90;;;;;;5111258;28;20436;-84
2023/06/30 11:35:18;;;;;;;0.10;0.00;;;25.00;99.90;;;;;;5108990;28;20569;-86
2023/06/30 11:37:53;;;;;;;0.00;0.00;;;24.80;99.90;;;;;;5103138;28;20521;-88
2023/06/30 11:40:21;;;;;;;0.10;0.00;;;24.50;99.90;;;;;;5109462;28;20241;-86
2023/06/30 11:42:47;;;;;;;0.10;0.00;;;25.20;99.90;;;;;;5108808;28;20434;-84
2023/06/30 11:45:17;;;;;;;0.10;0.00;;;25.70;99.90;;;;;;5111745;27;20489;-86
2023/06/30 11:47:46;;;;;;;0.10;0.00;;;25.70;99.90;;;;;;5090057;28;20688;-85
2023/06/30 11:50:12;;;;;;;0.10;0.00;;;25.00;99.90;;;;;;5113621;27;20524;-88
2023/06/30 11:52:39;;;;;;;0.10;0.00;;;24.50;99.90;;;;;;5110028;27;20533;-85
2023/06/30 11:55:08;;;;;;;0.10;0.00;;;23.10;99.90;;;;;;5093292;28;20441;-86
2023/06/30 11:57:39;;;;;;;0.10;0.00;;;22.50;99.90;;;;;;5113311;27;20500;-84
2023/06/30 12:00:12;;;;;;;0.10;0.00;;;22.20;99.90;;;;;;5105691;27;21024;-84
2023/06/30 12:02:42;;;;;;;0.10;0.00;;;21.80;99.90;;;;;;5089278;28;20528;-85
2023/06/30 12:05:17;;;;;;;0.10;0.00;;;21.80;99.90;;;;;;5090868;28;20510;-85
2023/06/30 12:07:44;;;;;;;0.10;0.00;;;21.30;99.90;;;;;;5106594;28;20477;-82
2023/06/30 12:10:10;;;;;;;0.10;0.00;;;21.50;99.90;;;;;;5098072;28;20995;-89
2023/06/30 12:12:37;;;;;;;0.10;0.00;;;21.20;99.90;;;;;;5100334;28;20954;-85
2023/06/30 12:15:10;;;;;;;0.10;0.00;;;21.40;99.90;;;;;;5108542;28;20511;-84
2023/06/30 12:17:39;;;;;;;0.10;0.00;;;21.80;99.90;;;;;;5107387;28;20445;-85
2023/06/30 12:20:06;;;;;;;0.10;0.00;;;21.90;99.90;;;;;;5110641;28;20442;-85
2023/06/30 12:22:35;;;;;;;0.10;0.00;;;22.20;99.90;;;;;;5093021;28;20442;-87
2023/06/30 12:25:02;;;;;;;0.10;0.00;;;23.70;99.90;;;;;;5110773;28;20441;-85
2023/06/30 12:27:27;;;;;;;0.10;0.00;;;24.20;99.90;;;;;;5109064;28;21048;-86
2023/06/30 12:29:54;;;;;;;0.10;0.00;;;25.50;99.90;;;;;;5100204;28;20468;-88
2023/06/30 12:32:20;;;;;;;0.10;0.00;;;24.70;99.90;;;;;;5108842;27;20207;-89
2023/06/30 12:34:46;;;;;;;0.10;0.00;;;23.50;99.90;;;;;;5111875;27;20434;-86
2023/06/30 12:37:14;;;;;;;0.10;0.00;;;23.10;99.90;;;;;;5100316;28;20465;-85
2023/06/30 12:39:41;;;;;;;0.00;0.00;;;22.50;99.90;;;;;;5104921;28;20202;-85
2023/06/30 12:42:07;;;;;;;0.00;0.00;;;21.90;99.90;;;;;;5110573;28;20925;-84
2023/06/30 12:44:32;;;;;;;0.00;0.00;;;21.40;99.90;;;;;;5097627;28;20557;-88
2023/06/30 12:47:03;;;;;;;0.00;0.00;;;21.60;99.90;;;;;;5110150;27;20643;-86